Time;durP1;ratioP1;P1;durP2;ratioP2;P2;SDS_P1;SDS_P2;PMS_P1;PMS_P2;Temp;Humidity;BMP_temperature;BMP_pressure;BME280_temperature;BME280_humidity;BME280_pressure;Samples;Min_cycle;Max_cycle;Signal;HPM_P1;HPM_P2
2023/10/31 00:02:10;;;;;;;1.17;1.08;;;11.00;99.90;;;;;;4969759;28;20225;-68
2023/10/31 00:04:37;;;;;;;1.38;0.80;;;11.00;99.90;;;;;;4972137;28;20228;-68
2023/10/31 00:07:04;;;;;;;1.10;0.93;;;11.00;99.90;;;;;;4971188;28;20222;-68
2023/10/31 00:09:30;;;;;;;1.55;1.00;;;11.00;99.90;;;;;;4972124;28;20213;-68
2023/10/31 00:11:58;;;;;;;1.02;0.80;;;11.00;99.90;;;;;;4971726;28;20230;-68
2023/10/31 00:14:26;;;;;;;0.80;0.80;;;10.90;99.90;;;;;;4971813;28;20669;-68
2023/10/31 04:32:45;;;;;;;0.90;0.80;;;9.40;99.90;;;;;;5036690;23;1347904;-68
2023/10/31 04:35:12;;;;;;;0.90;0.70;;;9.40;99.90;;;;;;4991391;28;20214;-67
2023/10/31 04:37:39;;;;;;;1.30;1.10;;;9.40;99.90;;;;;;4991264;28;20667;-65
2023/10/31 04:40:06;;;;;;;0.93;0.70;;;9.40;99.90;;;;;;4991478;28;20219;-66
2023/10/31 04:42:34;;;;;;;0.80;0.70;;;9.40;99.90;;;;;;4972724;28;20229;-66
2023/10/31 04:45:01;;;;;;;0.90;0.70;;;9.30;99.90;;;;;;4972248;28;20251;-66
2023/10/31 04:47:27;;;;;;;0.90;0.80;;;9.30;99.90;;;;;;4970405;28;20225;-68
2023/10/31 04:49:56;;;;;;;1.00;0.85;;;9.30;99.90;;;;;;4972137;28;20204;-68
2023/10/31 04:52:25;;;;;;;1.00;0.70;;;9.30;99.90;;;;;;4971958;28;20240;-68
2023/10/31 04:54:52;;;;;;;1.65;1.05;;;9.30;99.90;;;;;;4972207;28;20227;-68
2023/10/31 04:57:19;;;;;;;0.98;0.80;;;9.30;99.90;;;;;;4971681;28;20204;-68
2023/10/31 04:59:45;;;;;;;1.25;0.85;;;9.20;99.90;;;;;;4972133;28;20204;-68
2023/10/31 05:02:12;;;;;;;0.80;0.73;;;9.20;99.90;;;;;;4972198;28;20263;-68
2023/10/31 05:04:40;;;;;;;1.23;0.98;;;9.20;99.90;;;;;;4971926;28;20704;-68
2023/10/31 05:07:08;;;;;;;1.20;0.90;;;9.20;99.90;;;;;;4971447;28;20239;-68
2023/10/31 05:09:35;;;;;;;0.93;0.80;;;9.20;99.90;;;;;;4971947;28;20211;-68
2023/10/31 05:12:02;;;;;;;1.17;1.05;;;9.20;99.90;;;;;;4971859;28;20756;-68
2023/10/31 05:14:29;;;;;;;1.30;0.85;;;9.20;99.90;;;;;;4971803;28;20625;-67
2023/10/31 05:16:55;;;;;;;1.75;0.90;;;9.20;99.90;;;;;;4971361;28;20212;-66
2023/10/31 05:19:22;;;;;;;1.45;1.05;;;9.20;99.90;;;;;;4971740;28;20219;-65
2023/10/31 05:21:49;;;;;;;1.00;0.80;;;9.10;99.90;;;;;;4971324;28;20239;-65
2023/10/31 05:24:17;;;;;;;0.70;0.70;;;9.20;99.90;;;;;;4971517;28;20220;-65
2023/10/31 05:26:43;;;;;;;1.33;0.90;;;9.20;99.90;;;;;;4971479;28;20208;-65
2023/10/31 05:29:10;;;;;;;1.00;0.90;;;9.10;99.90;;;;;;4975185;28;20574;-65
2023/10/31 05:31:37;;;;;;;0.80;0.70;;;9.10;99.90;;;;;;4975233;28;20234;-66
2023/10/31 05:34:04;;;;;;;1.10;0.80;;;9.10;99.90;;;;;;4975226;28;20579;-66
2023/10/31 05:36:31;;;;;;;0.80;0.80;;;9.00;99.90;;;;;;4974792;28;20669;-65
2023/10/31 05:38:58;;;;;;;1.13;0.90;;;9.00;99.90;;;;;;4975250;28;20579;-66
2023/10/31 05:41:26;;;;;;;0.77;0.70;;;9.00;99.90;;;;;;4975138;28;20628;-66
2023/10/31 05:43:53;;;;;;;1.38;1.10;;;9.00;99.90;;;;;;4975118;28;20208;-66
2023/10/31 05:46:19;;;;;;;1.23;1.13;;;9.00;99.90;;;;;;4974629;28;20211;-66
2023/10/31 05:48:47;;;;;;;1.20;1.10;;;9.00;99.90;;;;;;4975086;28;20210;-68
2023/10/31 05:51:14;;;;;;;0.80;0.70;;;9.00;99.90;;;;;;4975284;28;20227;-68
2023/10/31 05:53:42;;;;;;;1.00;0.90;;;9.00;99.90;;;;;;4975027;28;20208;-66
2023/10/31 05:56:10;;;;;;;2.00;1.10;;;9.00;99.90;;;;;;4974674;28;20204;-65
2023/10/31 05:58:38;;;;;;;0.93;0.80;;;8.90;99.90;;;;;;4974878;28;20613;-66
2023/10/31 06:01:05;;;;;;;1.10;0.90;;;8.90;99.90;;;;;;4975327;28;20231;-66
2023/10/31 06:03:33;;;;;;;1.25;0.93;;;8.90;99.90;;;;;;4974934;28;20216;-66
2023/10/31 06:06:00;;;;;;;0.80;0.70;;;8.90;99.90;;;;;;4974601;28;20220;-66
2023/10/31 06:08:28;;;;;;;1.25;1.15;;;8.90;99.90;;;;;;4972596;28;20234;-66
2023/10/31 06:10:55;;;;;;;1.25;0.77;;;8.90;99.90;;;;;;4974747;28;20231;-66
2023/10/31 06:13:22;;;;;;;1.65;0.80;;;8.90;99.90;;;;;;4975534;28;20247;-66
2023/10/31 06:15:50;;;;;;;1.52;0.80;;;8.90;99.90;;;;;;4974556;28;20282;-68
2023/10/31 06:18:17;;;;;;;1.38;0.80;;;8.90;99.90;;;;;;4974480;28;20700;-67
2023/10/31 06:20:43;;;;;;;0.80;0.70;;;8.90;99.90;;;;;;4974414;28;20603;-68
2023/10/31 06:23:10;;;;;;;1.35;1.10;;;8.90;99.90;;;;;;4974812;28;20315;-68
2023/10/31 06:25:37;;;;;;;0.80;0.80;;;8.90;99.90;;;;;;4974180;28;20227;-66
2023/10/31 06:28:04;;;;;;;1.00;0.90;;;8.80;99.90;;;;;;4974189;28;20204;-65
2023/10/31 06:30:30;;;;;;;0.80;0.70;;;8.80;99.90;;;;;;4974542;28;20559;-65
2023/10/31 06:33:00;;;;;;;2.65;1.00;;;8.80;99.90;;;;;;4973843;28;20223;-66
2023/10/31 06:35:27;;;;;;;0.80;0.70;;;8.80;99.90;;;;;;4973429;28;20226;-66
2023/10/31 06:37:57;;;;;;;2.75;0.90;;;8.70;99.90;;;;;;4973798;28;20212;-66
2023/10/31 06:40:24;;;;;;;1.05;0.80;;;8.80;99.90;;;;;;4973886;28;20211;-66
2023/10/31 06:42:51;;;;;;;1.05;0.90;;;8.80;99.90;;;;;;4974056;28;20204;-67
2023/10/31 06:45:18;;;;;;;0.80;0.70;;;8.70;99.90;;;;;;4974247;28;20228;-66
2023/10/31 06:47:44;;;;;;;1.00;0.80;;;8.70;99.90;;;;;;4973743;28;20227;-66
2023/10/31 06:50:12;;;;;;;0.90;0.80;;;8.70;99.90;;;;;;4974214;28;20204;-66
2023/10/31 06:52:39;;;;;;;1.25;0.90;;;8.80;99.90;;;;;;4974085;28;20212;-67
2023/10/31 06:55:07;;;;;;;1.25;0.82;;;8.80;99.90;;;;;;4973999;28;20291;-66
2023/10/31 06:57:33;;;;;;;1.10;0.80;;;8.90;99.90;;;;;;4973749;28;20212;-67
2023/10/31 07:00:00;;;;;;;1.10;0.82;;;8.90;99.90;;;;;;4973455;28;20892;-66
2023/10/31 07:02:27;;;;;;;1.17;0.90;;;9.00;99.90;;;;;;4971031;28;20232;-66
2023/10/31 07:04:54;;;;;;;1.20;0.73;;;9.10;99.90;;;;;;4973710;28;20220;-66
2023/10/31 07:07:22;;;;;;;0.85;0.80;;;9.20;99.90;;;;;;4973699;28;20208;-66
2023/10/31 07:09:48;;;;;;;1.17;0.82;;;9.20;99.90;;;;;;4973819;28;20208;-66
2023/10/31 07:12:16;;;;;;;1.75;1.00;;;9.20;99.90;;;;;;4973811;28;20223;-66
2023/10/31 07:14:43;;;;;;;1.30;1.02;;;9.10;99.90;;;;;;4973620;28;20211;-66
2023/10/31 07:17:10;;;;;;;1.10;0.82;;;9.10;99.90;;;;;;4973594;28;20267;-67
2023/10/31 07:19:36;;;;;;;1.40;1.23;;;9.10;99.90;;;;;;4973638;28;20228;-66
2023/10/31 07:22:03;;;;;;;1.05;0.95;;;9.20;99.90;;;;;;4973918;28;20227;-66
2023/10/31 07:24:32;;;;;;;0.90;0.80;;;9.20;99.90;;;;;;4974287;28;20294;-66
2023/10/31 07:26:58;;;;;;;1.15;0.82;;;9.10;99.90;;;;;;4973341;28;20208;-66
2023/10/31 07:29:25;;;;;;;1.92;1.10;;;9.10;99.90;;;;;;4973781;28;20219;-66
2023/10/31 07:31:52;;;;;;;0.80;0.70;;;9.10;99.90;;;;;;4973238;28;20231;-66
2023/10/31 07:34:19;;;;;;;1.00;0.90;;;9.20;99.90;;;;;;4973451;28;20669;-66
2023/10/31 07:36:46;;;;;;;1.08;0.93;;;9.20;99.90;;;;;;4972697;28;20207;-66
2023/10/31 07:39:14;;;;;;;1.55;1.02;;;9.20;99.90;;;;;;4973353;28;20204;-67
2023/10/31 07:41:42;;;;;;;0.90;0.80;;;9.20;99.90;;;;;;4973213;28;20320;-66
2023/10/31 07:44:08;;;;;;;1.70;0.95;;;9.20;99.90;;;;;;4973389;28;20219;-66
2023/10/31 07:46:35;;;;;;;1.02;0.90;;;9.20;99.90;;;;;;4972599;28;20689;-66
2023/10/31 07:49:03;;;;;;;2.25;0.90;;;9.30;99.90;;;;;;4970413;28;20651;-66
2023/10/31 07:54:13;;;;;;;1.30;1.13;;;9.30;99.90;;;;;;5394509;23;20235;-66
2023/10/31 07:56:40;;;;;;;1.10;1.00;;;9.40;99.90;;;;;;4974360;28;20200;-66
2023/10/31 07:59:08;;;;;;;1.33;0.90;;;9.50;99.90;;;;;;4973301;28;20208;-66
2023/10/31 08:01:35;;;;;;;1.20;1.00;;;9.50;99.90;;;;;;4972556;28;20224;-66
2023/10/31 08:04:02;;;;;;;1.30;1.00;;;9.50;99.90;;;;;;4972646;28;20203;-65
2023/10/31 08:06:29;;;;;;;2.10;1.00;;;9.50;99.90;;;;;;4972968;28;20693;-66
2023/10/31 08:08:56;;;;;;;0.90;0.80;;;9.50;99.90;;;;;;4973016;28;20295;-66
2023/10/31 08:11:23;;;;;;;1.73;1.00;;;9.50;99.90;;;;;;4972829;28;20750;-65
2023/10/31 08:16:20;;;;;;;0.93;0.82;;;9.70;99.90;;;;;;4952027;29;20276;-67
2023/10/31 08:18:47;;;;;;;1.10;0.90;;;9.80;99.90;;;;;;4951037;28;20248;-66
2023/10/31 08:21:14;;;;;;;2.13;1.02;;;10.10;99.90;;;;;;4953133;28;20224;-67
2023/10/31 08:23:41;;;;;;;1.08;0.90;;;10.30;99.90;;;;;;4950483;28;20204;-66
2023/10/31 08:26:08;;;;;;;1.17;1.00;;;10.50;99.90;;;;;;4952665;28;20228;-66
2023/10/31 08:28:35;;;;;;;1.70;0.90;;;10.60;99.90;;;;;;4950863;28;20585;-66
2023/10/31 08:31:03;;;;;;;1.85;1.10;;;10.80;99.90;;;;;;4953070;28;20311;-66
2023/10/31 08:33:32;;;;;;;1.10;0.90;;;10.90;99.90;;;;;;4951201;28;20209;-66
2023/10/31 08:35:59;;;;;;;1.42;1.00;;;11.00;99.90;;;;;;4952863;29;20244;-66
2023/10/31 08:38:28;;;;;;;2.58;0.93;;;11.10;99.90;;;;;;4951955;28;20737;-66
2023/10/31 08:40:55;;;;;;;1.00;0.90;;;11.10;99.90;;;;;;4948001;29;20280;-66
2023/10/31 08:43:22;;;;;;;1.20;1.00;;;11.00;99.90;;;;;;4953019;28;20209;-66
2023/10/31 08:45:48;;;;;;;0.80;0.70;;;11.00;99.90;;;;;;4951440;29;20675;-65
2023/10/31 08:48:15;;;;;;;1.30;0.98;;;11.00;99.90;;;;;;4953077;28;20211;-66
2023/10/31 08:50:44;;;;;;;1.50;1.10;;;11.00;99.90;;;;;;4950903;28;20228;-66
2023/10/31 08:53:11;;;;;;;0.93;0.77;;;11.10;99.90;;;;;;4953388;28;20677;-66
2023/10/31 08:55:38;;;;;;;1.00;0.90;;;11.20;99.90;;;;;;4951491;28;20709;-66
2023/10/31 08:58:05;;;;;;;0.80;0.70;;;11.30;99.90;;;;;;4952804;28;20321;-66
2023/10/31 09:00:32;;;;;;;1.20;1.10;;;11.50;99.90;;;;;;4951560;28;20634;-66
2023/10/31 09:02:58;;;;;;;1.65;1.10;;;11.50;99.90;;;;;;4956088;28;20212;-65
2023/10/31 09:05:25;;;;;;;2.40;0.95;;;11.70;99.90;;;;;;4958021;28;20237;-66
2023/10/31 09:07:53;;;;;;;1.42;1.00;;;11.80;99.90;;;;;;4959081;28;20298;-66
2023/10/31 09:10:20;;;;;;;1.00;0.90;;;12.00;99.90;;;;;;4958575;28;20205;-66
2023/10/31 09:12:47;;;;;;;3.20;1.40;;;12.10;99.90;;;;;;4959573;28;20215;-66
2023/10/31 09:15:14;;;;;;;1.20;0.90;;;12.20;99.90;;;;;;4953591;28;20209;-67
2023/10/31 09:17:40;;;;;;;0.90;0.80;;;12.20;99.90;;;;;;5346058;23;20339;-66
2023/10/31 09:20:09;;;;;;;2.78;1.13;;;12.40;99.90;;;;;;4978442;28;20593;-66
2023/10/31 09:22:35;;;;;;;1.50;1.15;;;12.70;99.90;;;;;;4978724;28;20229;-66
2023/10/31 09:25:04;;;;;;;1.67;1.15;;;12.90;99.90;;;;;;4978134;28;20210;-65
2023/10/31 09:27:30;;;;;;;1.13;0.98;;;13.00;99.90;;;;;;4978205;28;20216;-66
2023/10/31 09:29:57;;;;;;;1.48;0.90;;;12.90;99.90;;;;;;4977792;28;20214;-65
2023/10/31 09:32:24;;;;;;;1.13;0.90;;;12.60;99.90;;;;;;4978121;28;20232;-66
2023/10/31 09:34:50;;;;;;;1.52;1.10;;;12.40;99.90;;;;;;4978128;28;20320;-66
2023/10/31 09:37:18;;;;;;;1.20;1.10;;;12.40;99.90;;;;;;4978285;28;20205;-65
2023/10/31 09:39:44;;;;;;;1.05;0.95;;;12.40;99.90;;;;;;4977617;28;20326;-66
2023/10/31 09:42:12;;;;;;;1.00;0.90;;;12.40;99.90;;;;;;4978444;28;20651;-66
2023/10/31 09:44:39;;;;;;;1.27;0.85;;;12.30;99.90;;;;;;4978191;28;20211;-65
2023/10/31 09:47:07;;;;;;;2.22;1.00;;;12.10;99.90;;;;;;4977648;28;20225;-65
2023/10/31 09:49:34;;;;;;;1.77;1.20;;;12.00;99.90;;;;;;4978227;28;20232;-66
2023/10/31 09:52:02;;;;;;;2.60;1.23;;;12.00;99.90;;;;;;4978118;28;20243;-65
2023/10/31 09:54:29;;;;;;;1.75;1.10;;;12.00;99.90;;;;;;4973033;28;20231;-65
2023/10/31 09:56:56;;;;;;;0.80;0.70;;;12.00;99.90;;;;;;4978274;28;20208;-65
2023/10/31 09:59:24;;;;;;;2.35;1.50;;;11.90;99.90;;;;;;4978333;28;20218;-66
2023/10/31 10:01:51;;;;;;;1.00;0.90;;;11.80;99.90;;;;;;4978194;28;20605;-66
2023/10/31 10:04:18;;;;;;;3.83;1.33;;;11.70;99.90;;;;;;4977819;28;20205;-65
2023/10/31 10:06:52;;;;;;;1.52;1.00;;;11.60;99.90;;;;;;4978144;28;20229;-66
2023/10/31 10:09:19;;;;;;;1.25;0.88;;;11.50;99.90;;;;;;4978214;28;20208;-66
2023/10/31 10:11:46;;;;;;;1.33;0.93;;;11.50;99.90;;;;;;4977903;28;20229;-66
2023/10/31 10:14:13;;;;;;;1.10;1.00;;;11.50;99.90;;;;;;4975579;28;20211;-66
2023/10/31 10:16:41;;;;;;;1.00;0.90;;;11.50;99.90;;;;;;4974381;28;20205;-66
2023/10/31 10:19:19;;;;;;;1.25;1.15;;;11.60;99.90;;;;;;4974331;28;20217;-65
2023/10/31 10:21:50;;;;;;;1.20;1.10;;;11.60;99.90;;;;;;4974849;28;20229;-65
2023/10/31 10:24:17;;;;;;;1.55;1.30;;;11.50;99.90;;;;;;4974978;28;20209;-66
2023/10/31 10:26:44;;;;;;;1.10;0.90;;;11.50;99.90;;;;;;4974895;28;20226;-66
2023/10/31 10:29:11;;;;;;;1.23;1.02;;;11.50;99.90;;;;;;4975220;28;20213;-66
2023/10/31 10:31:37;;;;;;;2.00;1.17;;;11.50;99.90;;;;;;4975092;28;20228;-66
2023/10/31 10:34:06;;;;;;;1.10;1.00;;;11.50;99.90;;;;;;4974635;28;20212;-66
2023/10/31 10:36:34;;;;;;;1.45;1.10;;;11.50;99.90;;;;;;4974373;28;20205;-66
2023/10/31 10:39:03;;;;;;;1.10;0.90;;;11.50;99.90;;;;;;4974623;28;20568;-66
2023/10/31 10:41:30;;;;;;;1.67;1.20;;;11.50;99.90;;;;;;4964820;28;20258;-66
2023/10/31 10:44:05;;;;;;;1.02;0.90;;;11.50;99.90;;;;;;4974661;28;20211;-66
2023/10/31 10:46:35;;;;;;;1.20;0.98;;;11.50;99.90;;;;;;4969278;28;20221;-67
2023/10/31 10:49:08;;;;;;;1.83;1.10;;;11.50;99.90;;;;;;4973955;28;20236;-66
2023/10/31 10:51:45;;;;;;;1.10;1.00;;;11.50;99.90;;;;;;4970166;28;20233;-66
2023/10/31 10:54:16;;;;;;;1.15;0.95;;;11.50;99.90;;;;;;4974418;28;20332;-65
2023/10/31 10:56:52;;;;;;;1.52;1.10;;;11.50;99.90;;;;;;4974391;28;20208;-66
2023/10/31 10:59:21;;;;;;;3.67;1.10;;;11.50;99.90;;;;;;4973450;28;20206;-66
2023/10/31 11:01:49;;;;;;;0.95;0.85;;;11.60;99.90;;;;;;4973954;28;20229;-65
2023/10/31 11:04:18;;;;;;;2.00;0.90;;;11.70;99.90;;;;;;4974091;28;20209;-66
2023/10/31 11:06:46;;;;;;;1.13;0.98;;;11.80;99.90;;;;;;4973905;28;20225;-66
2023/10/31 11:09:14;;;;;;;1.50;1.10;;;11.90;99.90;;;;;;4973764;28;20205;-65
2023/10/31 11:11:48;;;;;;;1.10;0.95;;;12.00;99.90;;;;;;4974450;28;20602;-65
2023/10/31 11:14:16;;;;;;;1.75;1.15;;;12.00;99.90;;;;;;4973483;28;20265;-66
2023/10/31 11:16:46;;;;;;;1.50;1.20;;;12.00;99.90;;;;;;4974134;28;20210;-66
2023/10/31 11:19:14;;;;;;;1.00;0.90;;;11.90;99.90;;;;;;4973560;28;20208;-66
2023/10/31 11:21:55;;;;;;;1.65;0.80;;;11.90;99.90;;;;;;4973927;28;20238;-66
2023/10/31 11:24:23;;;;;;;0.85;0.70;;;12.00;99.90;;;;;;4973196;28;20213;-66
2023/10/31 11:26:53;;;;;;;1.77;0.90;;;12.10;99.90;;;;;;4973473;28;20611;-66
2023/10/31 11:29:20;;;;;;;1.20;0.90;;;12.20;99.90;;;;;;4972507;28;20210;-66
2023/10/31 11:31:48;;;;;;;0.95;0.82;;;12.30;99.90;;;;;;4973679;28;20263;-66
2023/10/31 11:34:18;;;;;;;0.93;0.80;;;12.20;99.90;;;;;;4973230;28;20213;-66
2023/10/31 11:36:46;;;;;;;2.55;0.98;;;12.30;99.90;;;;;;4973471;28;20214;-66
2023/10/31 11:39:15;;;;;;;1.55;0.90;;;12.40;99.90;;;;;;4973086;28;20235;-66
2023/10/31 11:41:49;;;;;;;0.90;0.80;;;12.50;99.90;;;;;;4973502;28;20231;-65
2023/10/31 11:44:16;;;;;;;1.13;0.85;;;12.40;99.90;;;;;;4973020;28;20303;-66
2023/10/31 11:46:43;;;;;;;1.30;0.90;;;12.40;99.90;;;;;;4973220;28;20232;-65
2023/10/31 11:49:09;;;;;;;0.98;0.80;;;12.30;99.90;;;;;;4972937;28;20212;-66
2023/10/31 11:51:36;;;;;;;1.65;1.05;;;12.30;99.90;;;;;;4972998;28;20253;-65
2023/10/31 11:54:07;;;;;;;1.40;1.10;;;12.30;99.90;;;;;;4972826;28;20210;-66
2023/10/31 11:56:35;;;;;;;1.05;0.90;;;12.20;99.90;;;;;;4973427;28;20669;-67
2023/10/31 11:59:04;;;;;;;1.73;1.10;;;12.20;99.90;;;;;;4973231;28;20211;-67
2023/10/31 12:01:30;;;;;;;1.05;0.80;;;12.20;99.90;;;;;;4973376;28;20518;-65
2023/10/31 12:03:57;;;;;;;1.80;0.80;;;12.10;99.90;;;;;;4972603;28;20215;-66
2023/10/31 12:06:24;;;;;;;0.98;0.75;;;12.10;99.90;;;;;;4972850;28;20234;-65
2023/10/31 12:08:51;;;;;;;2.35;0.80;;;12.00;99.90;;;;;;4973128;28;20211;-66
2023/10/31 12:11:20;;;;;;;0.93;0.80;;;12.00;99.90;;;;;;4972565;28;20227;-66
2023/10/31 12:13:56;;;;;;;1.75;0.82;;;12.00;99.90;;;;;;4973114;28;20272;-66
2023/10/31 12:16:28;;;;;;;2.17;0.70;;;12.00;99.90;;;;;;4971645;28;20221;-66
2023/10/31 12:18:58;;;;;;;1.10;0.80;;;12.00;99.90;;;;;;4972873;28;20235;-66
2023/10/31 12:21:36;;;;;;;1.65;0.80;;;11.90;99.90;;;;;;5113913;23;20835;-66
2023/10/31 12:24:05;;;;;;;1.65;1.02;;;12.00;99.90;;;;;;4972542;28;20615;-66
2023/10/31 12:26:33;;;;;;;1.05;0.85;;;12.00;99.90;;;;;;4972326;28;20231;-66
2023/10/31 12:29:12;;;;;;;1.15;0.90;;;12.00;99.90;;;;;;4972293;28;20244;-66
2023/10/31 12:31:45;;;;;;;1.30;0.93;;;12.10;99.90;;;;;;4972648;28;20246;-66
2023/10/31 12:34:12;;;;;;;1.08;0.90;;;12.10;99.90;;;;;;4972577;28;20465;-66
2023/10/31 12:36:40;;;;;;;1.50;1.08;;;12.10;99.90;;;;;;4972211;28;20217;-66
2023/10/31 12:39:10;;;;;;;1.08;0.80;;;12.10;99.90;;;;;;4971919;28;20209;-66
2023/10/31 12:41:38;;;;;;;1.20;1.10;;;12.20;99.90;;;;;;4971692;28;20231;-66
2023/10/31 12:44:05;;;;;;;1.98;1.23;;;12.20;99.90;;;;;;4972365;28;20216;-66
2023/10/31 12:46:35;;;;;;;0.82;0.70;;;12.20;99.90;;;;;;4971288;28;20225;-66
2023/10/31 12:49:02;;;;;;;2.08;1.02;;;12.30;99.90;;;;;;4972353;28;20656;-66
2023/10/31 12:51:28;;;;;;;1.20;0.90;;;12.30;99.90;;;;;;4967992;28;20234;-66
2023/10/31 12:53:55;;;;;;;1.08;0.98;;;12.30;99.90;;;;;;4972038;28;20215;-66
2023/10/31 12:56:42;;;;;;;1.10;1.00;;;12.20;99.90;;;;;;4971348;28;20260;-66
2023/10/31 12:59:10;;;;;;;0.80;0.68;;;12.10;99.90;;;;;;4972035;28;20211;-66
2023/10/31 13:01:44;;;;;;;1.00;0.80;;;12.10;99.90;;;;;;4972234;28;20276;-66
2023/10/31 13:04:11;;;;;;;0.70;0.60;;;12.10;99.90;;;;;;4972045;28;20705;-66
2023/10/31 13:06:38;;;;;;;1.73;1.27;;;12.00;99.90;;;;;;4972100;28;20237;-66
2023/10/31 13:09:11;;;;;;;0.80;0.60;;;11.90;99.90;;;;;;4972140;28;20603;-66
2023/10/31 13:11:40;;;;;;;1.27;1.10;;;11.90;99.90;;;;;;4972334;28;20258;-66
2023/10/31 13:14:07;;;;;;;1.73;1.25;;;11.90;99.90;;;;;;4971857;28;20214;-66
2023/10/31 13:16:35;;;;;;;2.28;1.20;;;11.90;99.90;;;;;;4971901;28;20277;-66
2023/10/31 13:19:03;;;;;;;2.97;1.50;;;11.80;99.90;;;;;;4972249;28;20237;-66
2023/10/31 13:21:29;;;;;;;1.20;1.00;;;11.90;99.90;;;;;;4965514;28;20233;-66
2023/10/31 13:23:56;;;;;;;1.35;1.10;;;11.90;99.90;;;;;;4972021;28;20210;-66
2023/10/31 13:26:23;;;;;;;2.30;1.90;;;11.90;99.90;;;;;;4971494;28;20729;-66
2023/10/31 13:28:49;;;;;;;2.33;2.13;;;11.90;99.90;;;;;;4972308;28;20205;-66
2023/10/31 13:31:17;;;;;;;4.30;1.63;;;11.90;99.90;;;;;;4971789;28;20230;-66
2023/10/31 13:33:44;;;;;;;1.48;1.38;;;12.00;99.90;;;;;;4972135;28;20661;-66
2023/10/31 13:36:13;;;;;;;1.92;1.50;;;12.00;99.90;;;;;;4971857;28;20299;-66
2023/10/31 13:38:40;;;;;;;1.42;1.10;;;12.00;99.90;;;;;;4972080;28;20206;-66
2023/10/31 13:41:06;;;;;;;1.00;0.90;;;12.00;99.90;;;;;;4971671;28;20310;-66
2023/10/31 13:43:33;;;;;;;1.55;1.10;;;12.00;99.90;;;;;;4971870;28;20217;-66
2023/10/31 13:46:00;;;;;;;2.28;1.33;;;12.00;99.90;;;;;;4971293;28;20258;-66
2023/10/31 13:48:27;;;;;;;1.70;0.90;;;12.00;99.90;;;;;;4971316;28;20227;-66
2023/10/31 13:50:53;;;;;;;1.63;1.35;;;12.00;99.90;;;;;;4974315;28;20613;-66
2023/10/31 13:53:22;;;;;;;1.10;1.00;;;12.10;99.90;;;;;;4975164;28;20208;-66
2023/10/31 13:55:48;;;;;;;1.60;1.40;;;12.10;99.90;;;;;;4975365;28;20207;-67
2023/10/31 13:58:15;;;;;;;0.98;0.80;;;12.10;99.90;;;;;;4973642;28;20202;-67
2023/10/31 14:00:45;;;;;;;3.20;0.85;;;12.10;99.90;;;;;;4975207;28;20221;-66
2023/10/31 14:03:11;;;;;;;1.10;0.80;;;12.20;99.90;;;;;;5027385;23;20220;-67
2023/10/31 14:05:38;;;;;;;1.00;0.90;;;12.20;99.90;;;;;;4965163;28;20215;-67
2023/10/31 14:08:06;;;;;;;0.85;0.75;;;12.20;99.90;;;;;;4964840;28;20230;-67
2023/10/31 14:10:34;;;;;;;0.98;0.80;;;12.20;99.90;;;;;;4963931;28;20222;-67
2023/10/31 14:13:01;;;;;;;1.48;0.95;;;12.20;99.90;;;;;;4955188;29;20219;-67
2023/10/31 14:15:28;;;;;;;1.20;1.00;;;12.10;99.90;;;;;;4954254;29;20302;-67
2023/10/31 14:17:54;;;;;;;1.30;1.10;;;12.10;99.90;;;;;;4954808;29;20215;-68
2023/10/31 14:20:22;;;;;;;1.30;1.00;;;12.10;99.90;;;;;;4954821;28;20220;-67
2023/10/31 14:22:49;;;;;;;1.00;0.80;;;12.10;99.90;;;;;;4954697;29;20230;-67
2023/10/31 14:25:16;;;;;;;1.10;1.00;;;12.00;99.90;;;;;;4955304;29;20215;-67
2023/10/31 14:27:45;;;;;;;1.27;1.00;;;12.00;99.90;;;;;;4948879;29;20722;-67
2023/10/31 14:30:13;;;;;;;1.30;1.00;;;12.00;99.90;;;;;;4954758;28;20587;-68
2023/10/31 14:32:40;;;;;;;1.10;1.00;;;12.00;99.90;;;;;;4954745;29;20214;-67
2023/10/31 14:35:08;;;;;;;0.80;0.80;;;12.00;99.90;;;;;;4954567;29;20228;-67
2023/10/31 14:37:34;;;;;;;1.20;0.90;;;12.00;99.90;;;;;;4952572;29;20298;-67
2023/10/31 14:40:03;;;;;;;1.05;0.80;;;12.10;99.90;;;;;;4954688;29;20624;-67
2023/10/31 14:42:30;;;;;;;1.00;0.90;;;12.10;99.90;;;;;;4954214;28;20233;-67
2023/10/31 14:45:00;;;;;;;1.00;0.82;;;12.00;99.90;;;;;;4953985;28;20210;-67
2023/10/31 14:47:27;;;;;;;1.10;1.00;;;12.10;99.90;;;;;;4953674;29;20231;-67
2023/10/31 14:49:54;;;;;;;1.10;1.00;;;12.00;99.90;;;;;;4954372;29;20214;-67
2023/10/31 14:52:21;;;;;;;1.48;1.38;;;12.00;99.90;;;;;;4954015;28;20525;-67
2023/10/31 14:54:48;;;;;;;4.07;1.33;;;12.00;99.90;;;;;;4954166;29;20215;-67
2023/10/31 14:57:16;;;;;;;2.25;1.17;;;12.00;99.90;;;;;;4953887;28;20229;-67
2023/10/31 14:59:42;;;;;;;1.42;1.10;;;12.00;99.90;;;;;;4952881;28;20213;-67
2023/10/31 15:02:11;;;;;;;1.00;0.82;;;12.00;99.90;;;;;;4953862;28;20233;-67
2023/10/31 15:04:37;;;;;;;1.30;1.20;;;12.00;99.90;;;;;;4948013;29;20298;-67
2023/10/31 15:07:05;;;;;;;1.25;0.95;;;12.00;99.90;;;;;;4949862;29;20229;-66
2023/10/31 15:09:32;;;;;;;1.90;1.10;;;11.90;99.90;;;;;;4953933;28;20223;-67
2023/10/31 15:11:58;;;;;;;1.00;0.80;;;11.90;99.90;;;;;;4954102;28;20226;-67
2023/10/31 15:14:25;;;;;;;1.10;0.80;;;11.80;99.90;;;;;;4953935;29;20698;-66
2023/10/31 15:16:53;;;;;;;1.27;1.00;;;11.80;99.90;;;;;;4953661;29;20220;-67
2023/10/31 15:19:21;;;;;;;0.88;0.75;;;11.70;99.90;;;;;;4953709;29;20229;-67
2023/10/31 15:21:48;;;;;;;1.80;0.90;;;11.60;99.90;;;;;;4953565;28;20229;-67
2023/10/31 15:24:15;;;;;;;2.35;0.80;;;11.60;99.90;;;;;;4953561;29;20218;-67
2023/10/31 15:26:42;;;;;;;1.85;0.90;;;11.60;99.90;;;;;;4953309;29;20220;-67
2023/10/31 15:29:08;;;;;;;1.63;1.00;;;11.50;99.90;;;;;;4953339;29;20229;-66
2023/10/31 15:31:36;;;;;;;1.42;1.17;;;11.50;99.90;;;;;;4953394;28;20308;-66
2023/10/31 15:34:03;;;;;;;1.88;1.30;;;11.50;99.90;;;;;;4952960;29;20646;-66
2023/10/31 15:36:31;;;;;;;2.00;1.60;;;11.50;99.90;;;;;;4953263;28;20707;-66
2023/10/31 15:38:58;;;;;;;2.00;1.90;;;11.50;99.90;;;;;;4952943;29;20223;-66
2023/10/31 15:41:25;;;;;;;1.10;1.00;;;11.40;99.90;;;;;;4953348;28;20237;-66
2023/10/31 15:43:52;;;;;;;0.98;0.88;;;11.40;99.90;;;;;;4953187;29;20238;-66
2023/10/31 15:46:19;;;;;;;1.20;1.10;;;11.40;99.90;;;;;;4953002;29;20213;-66
2023/10/31 15:48:46;;;;;;;1.05;0.95;;;11.40;99.90;;;;;;4953170;29;20296;-67
2023/10/31 15:51:13;;;;;;;1.85;1.00;;;11.30;99.90;;;;;;4952671;28;20230;-66
2023/10/31 15:53:41;;;;;;;2.45;1.30;;;11.30;99.90;;;;;;4952957;29;20279;-67
2023/10/31 15:56:09;;;;;;;1.30;0.95;;;11.20;99.90;;;;;;4953101;29;20301;-66
2023/10/31 15:58:36;;;;;;;1.60;0.90;;;11.20;99.90;;;;;;4952975;28;20608;-66
2023/10/31 16:01:03;;;;;;;1.00;0.90;;;11.20;99.90;;;;;;4953156;28;20225;-66
2023/10/31 16:03:30;;;;;;;1.02;0.80;;;11.20;99.90;;;;;;4952924;29;20225;-67
2023/10/31 16:05:57;;;;;;;1.60;0.95;;;11.20;99.90;;;;;;4952536;29;20206;-66
2023/10/31 16:08:23;;;;;;;0.80;0.70;;;11.10;99.90;;;;;;4951954;29;20237;-66
2023/10/31 16:10:51;;;;;;;1.10;0.95;;;11.10;99.90;;;;;;4952990;28;20727;-67
2023/10/31 16:13:18;;;;;;;0.80;0.80;;;11.10;99.90;;;;;;4951823;28;20209;-66
2023/10/31 16:15:45;;;;;;;1.00;0.90;;;11.10;99.90;;;;;;4952445;28;20217;-66
2023/10/31 16:18:13;;;;;;;1.92;1.00;;;11.00;99.90;;;;;;4952663;29;20585;-66
2023/10/31 16:20:42;;;;;;;0.90;0.80;;;11.00;99.90;;;;;;4952401;28;20715;-67
2023/10/31 16:23:08;;;;;;;1.17;0.80;;;11.00;99.90;;;;;;4952597;29;20214;-66
2023/10/31 16:25:41;;;;;;;1.33;0.80;;;11.00;99.90;;;;;;4952675;29;20213;-66
2023/10/31 16:28:11;;;;;;;1.15;1.05;;;11.00;99.90;;;;;;4952113;29;20306;-67
2023/10/31 16:30:37;;;;;;;1.00;0.90;;;11.00;99.90;;;;;;4952440;28;20233;-66
2023/10/31 16:33:04;;;;;;;1.48;1.02;;;11.00;99.90;;;;;;4952912;29;20209;-66
2023/10/31 16:35:31;;;;;;;1.35;0.90;;;10.90;99.90;;;;;;4952540;29;20220;-66
2023/10/31 16:37:58;;;;;;;1.40;0.93;;;10.90;99.90;;;;;;4952405;29;20208;-66
2023/10/31 16:40:26;;;;;;;1.30;1.05;;;10.90;99.90;;;;;;4952533;28;20657;-67
2023/10/31 16:42:53;;;;;;;1.15;0.85;;;10.80;99.90;;;;;;4952716;29;20632;-66
2023/10/31 16:45:21;;;;;;;1.60;0.93;;;10.70;99.90;;;;;;4951015;29;20225;-66
2023/10/31 16:47:47;;;;;;;1.98;1.50;;;10.60;99.90;;;;;;4945837;29;20476;-66
2023/10/31 16:50:14;;;;;;;1.30;1.02;;;10.60;99.90;;;;;;4952347;29;20634;-67
2023/10/31 16:52:41;;;;;;;1.40;1.00;;;10.60;99.90;;;;;;4948551;28;20215;-67
2023/10/31 16:55:08;;;;;;;1.17;1.00;;;10.50;99.90;;;;;;4952131;29;20283;-67
2023/10/31 16:57:35;;;;;;;1.13;1.00;;;10.50;99.90;;;;;;4942498;28;20204;-66
2023/10/31 17:00:02;;;;;;;1.52;1.20;;;10.40;99.90;;;;;;4951000;28;20204;-67
2023/10/31 17:02:30;;;;;;;1.30;1.20;;;10.40;99.90;;;;;;4949560;29;20255;-67
2023/10/31 17:04:57;;;;;;;1.20;1.10;;;10.40;99.90;;;;;;4951673;28;20263;-67
2023/10/31 17:07:24;;;;;;;4.55;1.30;;;10.40;99.90;;;;;;4947344;29;20288;-67
2023/10/31 17:09:51;;;;;;;2.03;1.20;;;10.40;99.90;;;;;;4947169;29;20674;-67
2023/10/31 17:12:18;;;;;;;1.25;1.15;;;10.40;99.90;;;;;;4946663;28;20698;-67
2023/10/31 17:14:45;;;;;;;1.15;1.05;;;10.30;99.90;;;;;;4938872;28;20237;-66